Time;durP1;ratioP1;P1;durP2;ratioP2;P2;SDS_P1;SDS_P2;PMS_P1;PMS_P2;Temp;Humidity;BMP_temperature;BMP_pressure;BME280_temperature;BME280_humidity;BME280_pressure;Samples;Min_cycle;Max_cycle;Signal;HPM_P1;HPM_P2
2022/07/25 00:01:11;;;;;;;;;15.25;15.25;;;;;27.82;41.28;100702.25;5077763;27;45354;-55
2022/07/25 00:03:36;;;;;;;;;16.00;15.50;;;;;27.81;41.26;100705.22;5078534;27;46359;-55
2022/07/25 00:06:02;;;;;;;;;16.25;13.25;;;;;27.78;41.97;100692.09;5078542;28;45260;-55
2022/07/25 00:08:27;;;;;;;;;14.50;13.75;;;;;27.72;41.92;100688.44;5078531;28;45226;-58
2022/07/25 00:10:52;;;;;;;;;21.75;15.50;;;;;27.74;41.59;100688.22;5078764;28;45286;-55
2022/07/25 00:13:18;;;;;;;;;16.50;13.00;;;;;27.70;41.91;100681.63;5076844;28;46009;-55
2022/07/25 00:15:43;;;;;;;;;17.00;13.00;;;;;27.60;42.06;100663.22;5078429;27;45359;-58
2022/07/25 00:18:08;;;;;;;;;15.75;13.50;;;;;27.64;42.28;100672.53;5078239;27;45220;-55
2022/07/25 00:20:34;;;;;;;;;16.50;14.75;;;;;27.60;42.64;100677.72;5078573;27;45505;-59
2022/07/25 00:22:59;;;;;;;;;10.75;10.00;;;;;27.55;42.66;100674.94;5078070;27;46013;-56
2022/07/25 00:25:24;;;;;;;;;15.00;14.00;;;;;27.55;42.81;100671.38;5078217;27;45434;-61
2022/07/25 00:27:50;;;;;;;;;17.00;12.75;;;;;27.53;42.60;100668.09;5078339;27;45586;-64
2022/07/25 00:30:15;;;;;;;;;16.00;12.75;;;;;27.51;42.42;100665.59;5078411;27;45324;-63
2022/07/25 00:32:40;;;;;;;;;19.00;16.00;;;;;27.43;42.84;100657.06;5077994;28;45960;-60
2022/07/25 00:35:06;;;;;;;;;24.00;17.50;;;;;27.46;43.00;100667.47;5077799;27;45423;-61
2022/07/25 00:37:32;;;;;;;;;16.50;14.50;;;;;27.44;42.92;100666.94;5078146;28;45472;-64
2022/07/25 00:39:57;;;;;;;;;16.50;14.25;;;;;27.43;43.07;100668.00;5078225;27;45535;-65
2022/07/25 00:42:23;;;;;;;;;19.25;15.75;;;;;27.39;43.49;100664.97;5077763;27;46236;-64
2022/07/25 00:44:48;;;;;;;;;17.00;15.50;;;;;27.27;43.54;100645.22;5077880;27;45380;-63
2022/07/25 00:47:14;;;;;;;;;15.25;12.00;;;;;27.33;43.63;100650.44;5077894;27;45411;-63
2022/07/25 00:49:39;;;;;;;;;15.50;13.25;;;;;27.30;43.27;100650.13;5077916;27;45258;-61
2022/07/25 00:52:05;;;;;;;;;23.25;14.00;;;;;27.14;43.63;100621.03;5077506;27;46942;-59
2022/07/25 00:54:32;;;;;;;;;14.20;11.20;;;;;27.23;43.99;100644.91;5076495;27;45411;-61
2022/07/25 00:56:57;;;;;;;;;18.60;14.80;;;;;27.22;44.20;100642.41;5077973;27;45284;-64
2022/07/25 00:59:22;;;;;;;;;21.25;16.00;;;;;27.19;43.80;100648.41;5077864;27;45443;-62
2022/07/25 01:01:48;;;;;;;;;17.00;12.50;;;;;27.11;44.24;100639.59;5077749;27;45407;-61
2022/07/25 01:04:15;;;;;;;;;19.25;14.25;;;;;27.16;44.34;100640.72;5077544;27;45202;-64
2022/07/25 01:06:41;;;;;;;;;17.20;13.80;;;;;27.11;44.32;100641.50;5077644;27;45385;-64
2022/07/25 01:09:06;;;;;;;;;16.25;12.25;;;;;27.07;44.83;100630.25;5077589;27;45255;-61
2022/07/25 01:11:32;;;;;;;;;14.25;13.00;;;;;27.04;44.78;100632.66;5077150;27;45285;-64
2022/07/25 01:13:57;;;;;;;;;16.25;13.50;;;;;27.05;44.56;100640.63;5077556;28;45354;-61
2022/07/25 01:16:23;;;;;;;;;14.25;12.25;;;;;26.98;44.48;100637.25;5077409;28;45273;-64
2022/07/25 01:18:48;;;;;;;;;19.25;16.00;;;;;27.04;44.56;100658.06;5077509;28;45412;-64
2022/07/25 01:21:13;;;;;;;;;16.25;13.50;;;;;27.04;44.41;100666.25;5077273;27;47335;-61
2022/07/25 01:23:40;;;;;;;;;17.50;14.25;;;;;27.07;44.80;100670.38;5077002;27;45434;-63
2022/07/25 01:26:05;;;;;;;;;16.20;16.20;;;;;27.06;44.76;100655.09;5077382;27;45438;-56
2022/07/25 01:28:30;;;;;;;;;12.50;11.25;;;;;27.02;44.87;100667.59;5077381;28;45272;-63
2022/07/25 01:30:56;;;;;;;;;17.25;15.00;;;;;27.03;44.11;100652.88;5076981;28;47182;-63
2022/07/25 01:33:21;;;;;;;;;16.25;14.00;;;;;27.08;44.38;100648.25;5077068;27;45372;-62
2022/07/25 01:35:48;;;;;;;;;18.25;12.50;;;;;27.08;43.83;100658.38;5076872;28;45387;-64
2022/07/25 01:38:15;;;;;;;;;14.40;14.40;;;;;27.08;44.20;100661.91;5077185;27;45484;-60
2022/07/25 01:40:42;;;;;;;;;15.80;14.00;;;;;27.08;44.48;100667.38;5077032;27;45449;-60
2022/07/25 01:43:08;;;;;;;;;16.00;16.00;;;;;27.10;44.19;100668.00;5077004;27;45442;-56
2022/07/25 01:45:34;;;;;;;;;14.80;14.80;;;;;27.08;44.29;100653.72;5077116;27;45404;-56
2022/07/25 01:47:59;;;;;;;;;14.75;14.50;;;;;27.11;44.25;100657.91;5077269;27;45281;-62
2022/07/25 01:50:25;;;;;;;;;15.00;12.25;;;;;27.12;43.88;100654.06;5076943;28;45831;-61
2022/07/25 01:52:50;;;;;;;;;16.25;14.00;;;;;27.13;43.90;100652.16;5076869;27;45339;-62
2022/07/25 01:55:16;;;;;;;;;11.75;10.75;;;;;27.16;43.30;100649.75;5076787;27;45159;-64
2022/07/25 01:57:41;;;;;;;;;12.50;9.50;;;;;27.16;43.17;100649.75;5076960;28;45432;-56
2022/07/25 02:00:10;;;;;;;;;14.50;12.25;;;;;27.17;43.36;100645.09;5076860;28;46170;-60
2022/07/25 02:02:35;;;;;;;;;13.60;13.00;;;;;27.15;43.23;100645.38;5076750;27;45387;-62
2022/07/25 02:05:01;;;;;;;;;15.50;14.00;;;;;27.17;43.30;100651.38;5078608;27;45447;-56
2022/07/25 02:07:26;;;;;;;;;13.50;10.00;;;;;27.17;43.18;100650.56;5079202;27;45415;-60
2022/07/25 02:09:52;;;;;;;;;11.75;11.00;;;;;27.16;42.87;100657.94;5080014;27;46436;-64
2022/07/25 02:12:17;;;;;;;;;11.00;11.00;;;;;27.12;42.79;100643.16;5080376;27;45249;-63
2022/07/25 02:14:42;;;;;;;;;13.75;11.00;;;;;27.02;42.60;100630.19;5079245;27;45364;-56
2022/07/25 02:17:08;;;;;;;;;12.50;10.75;;;;;27.10;42.74;100646.16;5079239;27;45537;-64
2022/07/25 02:19:33;;;;;;;;;12.50;10.00;;;;;27.07;42.88;100641.16;5079984;27;46125;-58
2022/07/25 02:21:59;;;;;;;;;13.00;11.25;;;;;27.05;43.04;100648.81;5080200;27;45330;-55
2022/07/25 02:24:24;;;;;;;;;14.25;11.75;;;;;27.03;42.69;100648.22;5080116;27;45363;-60
2022/07/25 02:26:50;;;;;;;;;14.50;9.25;;;;;26.96;43.08;100633.94;5079140;27;45398;-61
2022/07/25 02:29:15;;;;;;;;;13.00;9.50;;;;;26.90;42.69;100629.53;5080081;27;45743;-58
2022/07/25 02:31:40;;;;;;;;;10.00;9.25;;;;;26.93;43.05;100634.50;5079711;27;45391;-59
2022/07/25 02:34:06;;;;;;;;;13.75;11.75;;;;;26.90;43.25;100640.44;5079940;27;45253;-63
2022/07/25 02:36:31;;;;;;;;;9.25;8.75;;;;;26.88;43.18;100642.59;5080136;27;45419;-57
2022/07/25 02:38:56;;;;;;;;;12.25;10.75;;;;;26.81;43.37;100642.81;5079653;27;46241;-60
2022/07/25 02:41:22;;;;;;;;;14.75;10.00;;;;;26.78;43.31;100637.88;5079853;27;45487;-57
2022/07/25 02:43:47;;;;;;;;;9.25;9.00;;;;;26.74;43.31;100647.66;5079996;27;45241;-60
2022/07/25 02:46:13;;;;;;;;;8.50;8.25;;;;;26.70;43.46;100640.22;5080108;27;45355;-62
2022/07/25 02:48:38;;;;;;;;;12.25;10.00;;;;;26.65;43.35;100640.19;5079627;27;46057;-56
2022/07/25 02:51:04;;;;;;;;;7.25;7.00;;;;;26.56;43.51;100646.09;5079612;27;45408;-59
2022/07/25 02:53:29;;;;;;;;;12.75;10.50;;;;;26.56;43.46;100648.00;5079334;27;45266;-61
2022/07/25 02:55:54;;;;;;;;;8.75;8.00;;;;;26.46;43.58;100628.75;5079642;27;45384;-55
2022/07/25 02:58:20;;;;;;;;;9.00;8.75;;;;;26.46;43.64;100651.41;5079550;27;46147;-63
2022/07/25 03:00:45;;;;;;;;;9.75;6.75;;;;;26.31;43.11;100638.38;5079471;27;45309;-62
2022/07/25 03:03:11;;;;;;;;;8.00;8.00;;;;;26.35;43.89;100650.44;5079963;27;45331;-61
2022/07/25 03:05:36;;;;;;;;;6.00;6.00;;;;;26.28;43.12;100643.53;5079772;27;45356;-60
2022/07/25 03:08:01;;;;;;;;;9.25;6.25;;;;;26.23;43.06;100640.75;5079128;27;45430;-55
2022/07/25 03:10:27;;;;;;;;;10.00;6.75;;;;;26.16;43.55;100634.63;5079233;27;45423;-63
2022/07/25 03:12:52;;;;;;;;;9.25;7.75;;;;;26.14;43.22;100640.34;5079397;27;45389;-62
2022/07/25 03:15:18;;;;;;;;;7.50;6.25;;;;;26.07;43.49;100654.16;5079424;27;45512;-57
2022/07/25 03:17:43;;;;;;;;;6.00;6.00;;;;;25.97;43.93;100640.41;5078609;27;46040;-55
2022/07/25 03:20:09;;;;;;;;;8.00;8.00;;;;;25.95;43.51;100650.72;5079172;27;45246;-57
2022/07/25 03:22:34;;;;;;;;;7.00;6.00;;;;;25.88;43.50;100650.91;5079590;27;45332;-57
2022/07/25 03:25:00;;;;;;;;;6.00;6.00;;;;;25.85;43.12;100650.56;5079256;27;45515;-60
2022/07/25 03:27:26;;;;;;;;;5.50;5.00;;;;;25.80;43.52;100659.50;5079181;27;47284;-61
2022/07/25 03:29:53;;;;;;;;;5.00;5.00;;;;;25.74;43.66;100655.00;5079240;27;45400;-59
2022/07/25 03:32:19;;;;;;;;;8.60;6.20;;;;;25.59;43.38;100644.69;5079035;27;45258;-60
2022/07/25 03:34:44;;;;;;;;;5.00;3.50;;;;;25.60;43.77;100662.69;5079104;28;45361;-63
2022/07/25 03:37:09;;;;;;;;;4.75;4.25;;;;;25.58;43.55;100669.47;5078854;27;45385;-61
2022/07/25 03:39:35;;;;;;;;;7.25;4.75;;;;;25.53;43.30;100666.66;5078730;27;45347;-60
2022/07/25 03:42:00;;;;;;;;;3.75;3.75;;;;;25.50;43.11;100665.25;5079281;27;45372;-58
2022/07/25 03:44:26;;;;;;;;;5.00;5.00;;;;;25.46;43.60;100675.00;5079206;27;45316;-59
2022/07/25 03:46:51;;;;;;;;;5.50;5.50;;;;;25.43;43.54;100675.47;5078880;28;45907;-60
2022/07/25 03:49:18;;;;;;;;;6.50;4.75;;;;;25.41;43.54;100684.97;5078715;27;45450;-61
2022/07/25 03:51:43;;;;;;;;;4.80;4.80;;;;;25.28;43.21;100667.03;5078887;27;45249;-60
2022/07/25 03:54:12;;;;;;;;;4.25;4.25;;;;;25.35;42.95;100684.06;5078911;28;45517;-62
2022/07/25 03:56:46;;;;;;;;;3.80;3.40;;;;;25.32;42.79;100698.16;5078434;27;45367;-59
2022/07/25 03:59:19;;;;;;;;;3.80;2.80;;;;;25.19;42.80;100684.84;5078894;27;45317;-61
2022/07/25 04:01:46;;;;;;;;;4.00;4.00;;;;;25.25;42.54;100692.88;5078758;27;45428;-56
2022/07/25 04:04:12;;;;;;;;;4.40;3.00;;;;;25.24;42.58;100704.00;5078945;27;45444;-61
2022/07/25 04:06:39;;;;;;;;;3.00;2.00;;;;;25.22;42.38;100712.41;5078671;27;45288;-58
2022/07/25 04:09:06;;;;;;;;;4.00;3.20;;;;;25.16;42.46;100702.53;5077186;27;45361;-61
2022/07/25 04:11:31;;;;;;;;;3.00;3.00;;;;;25.16;41.58;100704.38;5078535;27;45437;-63
2022/07/25 04:13:57;;;;;;;;;5.00;5.00;;;;;25.11;42.13;100714.16;5078945;27;45439;-60
2022/07/25 04:16:23;;;;;;;;;2.80;2.80;;;;;25.08;41.73;100708.31;5078286;27;45371;-63
2022/07/25 04:18:52;;;;;;;;;4.00;3.20;;;;;25.02;41.67;100710.09;5078256;27;45457;-62
2022/07/25 04:21:17;;;;;;;;;6.00;2.60;;;;;24.98;41.25;100706.22;5078580;27;45353;-62
2022/07/25 04:23:43;;;;;;;;;2.50;2.00;;;;;24.95;41.75;100714.88;5078429;27;45451;-58
2022/07/25 04:26:08;;;;;;;;;5.00;3.25;;;;;24.93;41.68;100714.28;5078030;27;46288;-57
2022/07/25 04:28:33;;;;;;;;;2.50;2.50;;;;;24.92;41.76;100717.25;5077030;27;45415;-63
2022/07/25 04:30:59;;;;;;;;;2.00;2.00;;;;;24.90;41.82;100714.75;5078306;27;45440;-55
2022/07/25 04:33:25;;;;;;;;;4.00;2.50;;;;;24.89;42.16;100721.28;5078542;27;45289;-62
2022/07/25 04:35:50;;;;;;;;;2.50;2.00;;;;;24.86;42.25;100727.19;5077609;27;45390;-63
2022/07/25 04:38:16;;;;;;;;;2.00;2.00;;;;;24.76;42.58;100716.13;5078102;27;45320;-60
2022/07/25 04:40:42;;;;;;;;;4.50;2.25;;;;;24.70;42.74;100706.22;5078022;28;45502;-60
2022/07/25 04:43:07;;;;;;;;;3.00;2.60;;;;;24.76;42.84;100725.09;5078274;28;45386;-62
2022/07/25 04:45:33;;;;;;;;;3.00;1.50;;;;;24.72;43.38;100723.13;5077922;27;45403;-62
2022/07/25 04:47:59;;;;;;;;;4.00;3.00;;;;;24.78;43.37;100738.50;5077711;28;45324;-62
2022/07/25 04:50:25;;;;;;;;;2.00;2.00;;;;;24.64;43.83;100727.84;5078137;28;45385;-56
2022/07/25 04:52:51;;;;;;;;;3.00;2.25;;;;;24.71;44.28;100738.59;5077963;28;45418;-62
2022/07/25 04:55:16;;;;;;;;;3.20;2.00;;;;;24.72;44.43;100744.88;5077451;27;46079;-55
2022/07/25 04:57:42;;;;;;;;;2.00;2.00;;;;;24.73;44.31;100746.53;5077750;28;45391;-58
2022/07/25 05:00:09;;;;;;;;;2.75;2.50;;;;;24.73;44.15;100746.53;5077949;27;45182;-56
2022/07/25 05:02:35;;;;;;;;;5.00;3.40;;;;;24.64;44.17;100727.03;5078238;28;45245;-60
2022/07/25 05:05:01;;;;;;;;;2.00;2.00;;;;;24.64;44.44;100730.56;5077437;27;47232;-59
2022/07/25 05:07:27;;;;;;;;;3.00;2.00;;;;;24.61;44.94;100744.66;5077522;27;45483;-61
2022/07/25 05:09:53;;;;;;;;;3.00;1.50;;;;;24.45;45.20;100734.53;5077533;27;45395;-61
2022/07/25 05:12:19;;;;;;;;;3.60;1.00;;;;;24.42;44.50;100729.56;5077814;27;45336;-58
2022/07/25 05:14:44;;;;;;;;;0.75;0.75;;;;;24.56;45.54;100751.88;5077415;27;45408;-58
2022/07/25 05:17:10;;;;;;;;;2.50;1.50;;;;;24.57;45.67;100754.38;5077419;27;45426;-57
2022/07/25 05:19:35;;;;;;;;;5.00;2.00;;;;;24.60;46.20;100763.94;5077600;27;45324;-63
2022/07/25 05:22:01;;;;;;;;;3.75;1.50;;;;;24.62;45.46;100767.25;5077917;27;45425;-62
2022/07/25 05:24:27;;;;;;;;;2.00;2.00;;;;;24.64;46.01;100760.50;5077622;27;45384;-57
2022/07/25 05:26:52;;;;;;;;;2.00;2.00;;;;;24.66;45.78;100760.28;5077600;27;45363;-60
2022/07/25 05:29:18;;;;;;;;;2.75;2.75;;;;;24.64;45.74;100765.94;5077485;28;45216;-58
2022/07/25 05:31:43;;;;;;;;;1.75;1.75;;;;;24.66;46.18;100775.78;5077354;27;45487;-57
2022/07/25 05:34:10;;;;;;;;;3.25;1.75;;;;;24.68;45.92;100774.44;5077070;28;46337;-61
2022/07/25 05:36:35;;;;;;;;;1.60;1.60;;;;;24.59;46.33;100757.66;5077223;28;45293;-56
2022/07/25 05:39:00;;;;;;;;;1.75;1.75;;;;;24.68;46.50;100771.72;5078011;27;45299;-56
2022/07/25 05:41:26;;;;;;;;;4.50;2.75;;;;;24.73;46.08;100773.72;5080932;27;45478;-56
2022/07/25 05:43:52;;;;;;;;;3.25;1.00;;;;;24.77;46.18;100777.63;5080715;27;46346;-55
2022/07/25 05:46:17;;;;;;;;;2.00;2.00;;;;;24.85;46.04;100782.69;5080748;27;45398;-59
2022/07/25 05:48:43;;;;;;;;;2.00;2.00;;;;;24.91;46.13;100781.75;5080847;27;45308;-55
2022/07/25 05:51:08;;;;;;;;;2.00;2.00;;;;;24.90;46.09;100774.63;5081186;27;45315;-62
2022/07/25 05:53:34;;;;;;;;;6.25;3.00;;;;;24.98;45.58;100789.75;5080589;28;47193;-57
2022/07/25 05:56:00;;;;;;;;;6.00;3.00;;;;;24.97;45.65;100777.22;5080377;28;45378;-58
2022/07/25 05:58:25;;;;;;;;;2.25;2.25;;;;;24.81;46.03;100765.19;5080830;27;45291;-59
2022/07/25 06:00:51;;;;;;;;;3.00;2.00;;;;;24.91;45.85;100798.06;5080775;27;45519;-55
2022/07/25 06:03:17;;;;;;;;;2.50;2.25;;;;;24.91;46.16;100799.97;5079113;27;47160;-54
2022/07/25 06:05:43;;;;;;;;;3.60;2.00;;;;;24.89;46.03;100795.56;5080233;27;45396;-56
2022/07/25 06:08:09;;;;;;;;;2.60;2.60;;;;;24.91;45.56;100795.34;5080451;27;45424;-57
2022/07/25 06:10:34;;;;;;;;;2.50;1.50;;;;;24.94;46.24;100802.19;5080792;27;45309;-59
2022/07/25 06:12:59;;;;;;;;;2.50;2.50;;;;;24.95;46.14;100807.41;5080323;27;46183;-60
2022/07/25 06:15:25;;;;;;;;;4.00;2.75;;;;;24.94;46.18;100811.19;5080424;28;45478;-62
2022/07/25 06:17:50;;;;;;;;;2.00;2.00;;;;;24.91;45.63;100802.69;5080252;27;45282;-58
2022/07/25 06:20:16;;;;;;;;;2.00;1.50;;;;;24.89;45.93;100816.53;5080507;27;45432;-62
2022/07/25 06:22:41;;;;;;;;;2.75;2.75;;;;;24.84;45.89;100816.41;5080073;27;45346;-56
2022/07/25 06:25:07;;;;;;;;;2.50;2.00;;;;;24.86;45.67;100827.88;5080049;27;45410;-61
2022/07/25 06:27:32;;;;;;;;;2.40;2.40;;;;;24.80;45.60;100816.06;5080252;27;45335;-64
2022/07/25 06:29:58;;;;;;;;;3.00;3.00;;;;;24.78;46.15;100814.66;5080357;27;45308;-63
2022/07/25 06:32:23;;;;;;;;;3.00;3.00;;;;;24.84;46.30;100825.41;5079859;28;45954;-63
2022/07/25 06:34:49;;;;;;;;;3.00;2.00;;;;;24.83;46.14;100823.75;5079872;28;45482;-64
2022/07/25 06:37:15;;;;;;;;;1.40;1.40;;;;;24.88;46.07;100831.19;5080196;27;45306;-63
2022/07/25 06:39:40;;;;;;;;;2.75;1.25;;;;;24.88;46.40;100820.31;5080239;27;45456;-56
2022/07/25 06:42:06;;;;;;;;;2.75;2.75;;;;;24.95;46.07;100834.63;5079685;27;46092;-64
2022/07/25 06:44:32;;;;;;;;;4.00;3.00;;;;;24.99;45.95;100832.22;5079967;27;45399;-63
2022/07/25 06:46:59;;;;;;;;;1.60;1.60;;;;;25.02;45.81;100827.13;5080333;27;45302;-64
2022/07/25 06:49:25;;;;;;;;;2.60;2.60;;;;;25.05;45.78;100831.28;5080205;27;45492;-64
2022/07/25 06:51:50;;;;;;;;;4.75;2.00;;;;;25.09;46.07;100819.69;5078471;27;46061;-59
2022/07/25 06:54:17;;;;;;;;;3.00;3.00;;;;;25.24;45.45;100824.66;5079775;27;45174;-63
2022/07/25 06:56:43;;;;;;;;;6.00;3.00;;;;;25.42;45.88;100834.53;5079546;27;45433;-64
2022/07/25 06:59:08;;;;;;;;;2.00;2.00;;;;;25.61;44.89;100833.22;5080164;28;45411;-64
2022/07/25 07:01:33;;;;;;;;;4.25;3.00;;;;;25.92;45.01;100831.09;5079365;27;46827;-62
2022/07/25 07:03:59;;;;;;;;;3.00;3.00;;;;;26.32;44.57;100846.47;5080004;27;45446;-60
2022/07/25 07:06:24;;;;;;;;;2.00;2.00;;;;;26.74;43.95;100852.31;5078530;27;45446;-62
2022/07/25 07:08:50;;;;;;;;;2.75;2.00;;;;;27.21;43.45;100856.50;5079883;27;45358;-62
2022/07/25 07:11:15;;;;;;;;;4.00;2.25;;;;;27.66;42.43;100858.13;5079216;27;47216;-64
2022/07/25 07:13:41;;;;;;;;;5.50;2.75;;;;;28.14;42.23;100861.88;5079532;27;45391;-61
2022/07/25 07:16:07;;;;;;;;;4.00;2.25;;;;;28.59;41.01;100867.72;5079766;27;45214;-58
2022/07/25 07:18:32;;;;;;;;;2.00;2.00;;;;;29.03;39.85;100872.97;5079722;28;45204;-56
2022/07/25 07:20:57;;;;;;;;;2.25;2.00;;;;;29.49;39.67;100870.38;5079238;27;46020;-58
2022/07/25 07:23:23;;;;;;;;;2.50;2.50;;;;;29.95;38.78;100861.44;5079275;27;45348;-61
2022/07/25 07:25:48;;;;;;;;;2.00;2.00;;;;;30.43;37.70;100854.63;5079201;28;45469;-64
2022/07/25 07:28:14;;;;;;;;;1.50;1.50;;;;;30.97;36.84;100859.47;5079655;27;45396;-58
2022/07/25 07:30:40;;;;;;;;;3.00;2.00;;;;;31.58;36.52;100850.13;5079097;27;46269;-60
2022/07/25 07:33:05;;;;;;;;;3.25;3.25;;;;;32.49;34.44;100861.59;5079117;27;45308;-62
2022/07/25 07:35:31;;;;;;;;;2.00;2.00;;;;;34.29;31.40;100850.63;5078995;27;45923;-64
2022/07/25 07:37:56;;;;;;;;;4.00;4.00;;;;;36.51;28.33;100861.06;5079282;27;45366;-59
2022/07/25 07:40:23;;;;;;;;;3.00;3.00;;;;;38.29;27.35;100849.25;5079020;27;46050;-65
2022/07/25 07:42:50;;;;;;;;;2.00;2.00;;;;;39.92;23.97;100867.34;5078665;27;45356;-64
2022/07/25 07:45:20;;;;;;;;;0.60;0.60;;;;;41.25;22.92;100869.88;5079104;27;45332;-64
2022/07/25 07:47:48;;;;;;;;;1.60;1.40;;;;;42.43;22.59;100864.94;5079178;27;45388;-65
2022/07/25 07:50:15;;;;;;;;;1.20;1.00;;;;;43.44;20.07;100863.38;5078794;28;45356;-61
2022/07/25 07:52:41;;;;;;;;;3.40;3.00;;;;;44.22;20.76;100852.97;5078745;27;45396;-56
2022/07/25 07:57:51;;;;;;;;;3.80;2.00;;;;;45.61;18.71;100879.66;5078962;28;45237;-64
2022/07/25 08:00:17;;;;;;;;;3.25;2.00;;;;;46.01;18.81;100873.28;5078650;27;45480;-65
2022/07/25 08:02:48;;;;;;;;;4.80;2.00;;;;;46.62;18.52;100880.38;5078461;27;45392;-56
2022/07/25 08:05:21;;;;;;;;;4.20;1.80;;;;;47.22;18.19;100882.00;5079023;27;45342;-59
2022/07/25 08:07:47;;;;;;;;;1.40;1.40;;;;;47.56;16.61;100871.31;5078784;27;45401;-58
2022/07/25 08:10:12;;;;;;;;;1.00;1.00;;;;;48.06;16.11;100882.81;5078477;27;46980;-61
2022/07/25 08:12:41;;;;;;;;;3.00;1.00;;;;;48.39;15.70;100884.44;5078434;27;45406;-56
2022/07/25 08:15:07;;;;;;;;;1.40;1.40;;;;;48.79;16.21;100892.97;5078679;27;45292;-63
2022/07/25 08:17:32;;;;;;;;;1.60;1.60;;;;;49.28;15.58;100888.44;5078767;27;45765;-58
2022/07/25 08:19:58;;;;;;;;;0.00;0.00;;;;;49.33;15.95;100883.16;5078480;27;46144;-57
2022/07/25 08:22:23;;;;;;;;;1.00;1.00;;;;;48.52;16.44;100903.84;5078498;27;45263;-57
2022/07/25 08:24:48;;;;;;;;;4.00;1.00;;;;;49.07;15.05;100894.94;5078261;27;45240;-56
2022/07/25 08:27:14;;;;;;;;;1.25;1.25;;;;;49.38;14.63;100894.03;5078479;28;45166;-62
2022/07/25 08:29:39;;;;;;;;;1.50;0.75;;;;;49.08;15.96;100893.72;5078378;27;46172;-56
2022/07/25 08:32:05;;;;;;;;;0.50;0.50;;;;;46.66;17.37;100898.09;5076963;27;45375;-57
2022/07/25 08:34:31;;;;;;;;;2.75;1.00;;;;;46.41;16.91;100908.28;5078236;28;45308;-61
2022/07/25 08:36:56;;;;;;;;;1.40;0.80;;;;;46.85;16.18;100901.84;5078276;27;45545;-57
2022/07/25 08:39:21;;;;;;;;;1.00;0.50;;;;;46.94;16.67;100907.97;5078037;27;45926;-63
2022/07/25 08:41:48;;;;;;;;;2.25;2.25;;;;;47.36;16.51;100906.66;5078104;27;45312;-56
2022/07/25 08:44:17;;;;;;;;;1.00;1.00;;;;;48.56;14.86;100902.63;5078156;27;45413;-63
2022/07/25 08:46:44;;;;;;;;;0.80;0.80;;;;;48.30;15.29;100912.25;5078408;27;45198;-56
2022/07/25 08:49:10;;;;;;;;;0.80;0.00;;;;;49.33;15.10;100900.13;5077841;28;46206;-55
2022/07/25 08:51:37;;;;;;;;;0.80;0.80;;;;;49.38;14.48;100911.00;5076620;27;45410;-63
2022/07/25 08:54:03;;;;;;;;;0.00;0.00;;;;;49.04;14.90;100912.69;5078361;27;45261;-61
2022/07/25 08:56:28;;;;;;;;;0.80;0.20;;;;;49.50;15.44;100904.13;5077878;27;45491;-56
2022/07/25 08:58:57;;;;;;;;;0.75;0.00;;;;;49.90;15.02;100910.44;5077621;28;45329;-58
2022/07/25 09:01:23;;;;;;;;;0.80;0.00;;;;;50.80;13.55;100919.91;5077978;27;45206;-62
2022/07/25 09:03:48;;;;;;;;;0.25;0.25;;;;;50.21;13.70;100911.47;5077926;27;45220;-55
2022/07/25 09:06:18;;;;;;;;;0.00;0.00;;;;;47.90;16.01;100904.88;5078118;27;45370;-62
2022/07/25 09:08:58;;;;;;;;;2.00;0.00;;;;;46.87;16.43;100927.63;5077648;28;46133;-57
2022/07/25 09:11:35;;;;;;;;;2.20;1.00;;;;;45.03;17.71;100918.13;5077686;27;45316;-56
2022/07/25 09:14:09;;;;;;;;;0.40;0.40;;;;;44.81;17.83;100913.34;5076961;27;45260;-55
2022/07/25 09:16:40;;;;;;;;;3.00;0.80;;;;;43.05;19.44;100931.31;5076508;27;45594;-63
2022/07/25 09:19:12;;;;;;;;;1.20;1.20;;;;;41.06;21.14;100926.31;5077401;27;46200;-62
2022/07/25 09:21:39;;;;;;;;;1.40;1.40;;;;;39.31;22.85;100937.38;5077418;27;45394;-58
2022/07/25 09:24:17;;;;;;;;;1.80;1.80;;;;;37.70;24.13;100940.59;5077479;27;45293;-58
2022/07/25 09:26:51;;;;;;;;;2.20;2.20;;;;;36.47;25.85;100948.72;5077690;27;45360;-62
2022/07/25 09:29:41;;;;;;;;;2.00;2.00;;;;;35.40;27.06;100942.81;5076947;27;45360;-56
2022/07/25 09:32:15;;;;;;;;;0.00;0.00;;;;;35.19;26.92;100939.66;5077422;27;45352;-56
2022/07/25 09:34:43;;;;;;;;;1.00;0.60;;;;;36.27;26.35;100949.19;5077162;27;45354;-57
2022/07/25 09:37:11;;;;;;;;;2.00;1.40;;;;;37.48;25.27;100933.22;5075992;27;45317;-55
2022/07/25 09:39:41;;;;;;;;;1.00;1.00;;;;;37.74;24.38;100949.91;5077219;27;45618;-57
2022/07/25 09:42:36;;;;;;;;;0.00;0.00;;;;;36.24;25.88;100950.66;5077073;27;45179;-63
2022/07/25 09:45:11;;;;;;;;;0.60;0.60;;;;;35.18;27.53;100957.34;5054678;28;45469;-63
2022/07/25 09:47:58;;;;;;;;;2.40;1.20;;;;;34.19;29.11;100956.56;5054907;28;45441;-59
2022/07/25 09:50:25;;;;;;;;;0.80;0.80;;;;;33.31;29.36;100960.75;5054563;28;46192;-58
2022/07/25 09:52:53;;;;;;;;;0.00;0.00;;;;;32.71;31.47;100957.50;5054640;28;45446;-59
2022/07/25 09:55:19;;;;;;;;;1.00;1.00;;;;;32.40;31.91;100970.69;5054626;28;45394;-56
2022/07/25 09:57:46;;;;;;;;;1.20;1.20;;;;;32.43;31.37;100970.13;5054532;28;45555;-64
2022/07/25 10:00:13;;;;;;;;;1.60;1.60;;;;;32.39;30.80;100966.28;5054456;28;46219;-55
2022/07/25 10:02:47;;;;;;;;;1.20;1.20;;;;;33.28;30.24;100967.66;5054155;28;45411;-54
2022/07/25 10:05:19;;;;;;;;;0.20;0.20;;;;;36.66;26.52;100957.66;5037701;28;45484;-59
2022/07/25 10:07:48;;;;;;;;;0.40;0.40;;;;;36.77;26.20;100957.38;5054623;28;45485;-58
2022/07/25 10:10:40;;;;;;;;;2.40;1.40;;;;;36.49;26.61;100965.81;5054356;28;45391;-60
2022/07/25 10:13:10;;;;;;;;;0.80;0.80;;;;;35.66;27.50;100960.53;5049627;28;45384;-54
2022/07/25 10:15:48;;;;;;;;;3.00;2.80;;;;;34.65;28.48;100947.53;5037380;28;45429;-56
2022/07/25 10:18:15;;;;;;;;;2.00;2.00;;;;;34.18;28.71;100962.38;5054619;28;45405;-58
2022/07/25 10:20:42;;;;;;;;;1.00;1.00;;;;;33.75;30.02;100966.00;5058567;28;46220;-57
2022/07/25 10:23:20;;;;;;;;;1.80;1.80;;;;;33.80;29.36;100962.38;5076661;27;45372;-55
2022/07/25 10:25:46;;;;;;;;;1.20;1.20;;;;;33.15;30.37;100954.56;5078137;28;45429;-60
2022/07/25 10:28:18;;;;;;;;;0.00;0.00;;;;;32.63;30.51;100952.63;5080585;27;45362;-57
2022/07/25 10:30:44;;;;;;;;;4.20;2.20;;;;;32.12;31.92;100977.75;5079985;27;46072;-55
2022/07/25 10:33:11;;;;;;;;;2.00;0.25;;;;;31.59;31.95;100974.69;5095937;27;45384;-55
2022/07/25 10:35:37;;;;;;;;;2.40;2.40;;;;;31.14;33.36;100974.56;5079947;27;45425;-61
2022/07/25 10:38:04;;;;;;;;;4.00;4.00;;;;;30.93;34.27;100978.41;5080305;28;45352;-56
2022/07/25 10:40:38;;;;;;;;;2.00;2.00;;;;;30.62;34.02;100964.69;5079923;27;46166;-55
2022/07/25 10:43:04;;;;;;;;;3.00;3.00;;;;;30.42;34.46;100990.22;5079941;28;45190;-54
2022/07/25 10:45:37;;;;;;;;;3.25;2.75;;;;;30.21;35.27;100974.81;5080089;27;45506;-58
2022/07/25 10:48:06;;;;;;;;;2.80;1.80;;;;;30.23;35.04;100984.44;5080384;27;45257;-54
2022/07/25 10:50:32;;;;;;;;;3.00;3.00;;;;;30.18;34.97;100989.09;5080061;27;46950;-63
2022/07/25 10:53:06;;;;;;;;;3.25;2.50;;;;;29.94;34.68;100984.06;5079760;27;45309;-62
2022/07/25 10:55:34;;;;;;;;;2.00;2.00;;;;;29.63;35.79;100990.53;5079921;27;45424;-57
2022/07/25 10:58:07;;;;;;;;;9.60;7.80;;;;;29.38;36.50;100997.53;5080162;28;45598;-59
2022/07/25 11:00:33;;;;;;;;;5.40;4.20;;;;;29.17;37.74;100998.50;5079847;27;45400;-61
2022/07/25 11:02:59;;;;;;;;;2.50;2.50;;;;;28.98;37.31;101003.56;5079451;27;45386;-57
2022/07/25 11:05:25;;;;;;;;;1.60;1.60;;;;;28.77;37.67;101006.09;5079767;28;45422;-61
2022/07/25 11:07:52;;;;;;;;;6.00;4.00;;;;;28.58;37.85;100997.47;5079807;27;45470;-62
2022/07/25 11:10:25;;;;;;;;;1.40;1.40;;;;;28.70;38.38;101007.44;5079766;27;46281;-56
2022/07/25 11:12:51;;;;;;;;;2.40;2.40;;;;;28.96;37.28;101012.03;5079180;28;45337;-59
2022/07/25 11:15:22;;;;;;;;;3.00;3.00;;;;;29.18;37.71;101008.34;5079469;28;45290;-59
2022/07/25 11:17:52;;;;;;;;;2.60;2.60;;;;;29.78;37.40;101001.56;5079730;27;45403;-55
2022/07/25 11:20:18;;;;;;;;;3.60;2.00;;;;;30.55;35.26;100989.69;5079150;27;46292;-63
2022/07/25 11:22:54;;;;;;;;;6.20;3.60;;;;;30.62;35.82;100996.81;5079104;27;45570;-55